createdAt,value
2022-08-26T00:02:17.171Z,4.40
2022-08-26T00:04:49.682Z,4.30
2022-08-26T00:07:19.806Z,5.10
2022-08-26T00:09:48.835Z,3.80
2022-08-26T00:12:18.440Z,4.10
2022-08-26T00:14:46.618Z,4.80
2022-08-26T00:17:14.895Z,3.70
2022-08-26T00:19:43.248Z,5.10
2022-08-26T00:22:11.507Z,4.20
2022-08-26T00:24:40.186Z,4.20
2022-08-26T00:27:16.487Z,4.20
2022-08-26T00:29:46.591Z,4.90
2022-08-26T00:32:14.964Z,4.40
2022-08-26T00:34:43.395Z,3.80
2022-08-26T00:37:15.631Z,4.30
2022-08-26T00:39:45.654Z,4.30
2022-08-26T00:42:14.168Z,4.50
2022-08-26T00:44:42.431Z,4.20
2022-08-26T00:47:22.832Z,4.00
2022-08-26T00:49:51.820Z,4.40
2022-08-26T00:52:23.191Z,4.10
2022-08-26T00:55:00.966Z,4.60
2022-08-26T00:57:32.310Z,4.20
2022-08-26T01:00:03.381Z,4.20
2022-08-26T01:02:31.611Z,4.40
2022-08-26T01:05:04.004Z,3.90
2022-08-26T01:07:34.759Z,4.50
2022-08-26T01:10:09.106Z,4.10
2022-08-26T01:12:43.118Z,3.90
2022-08-26T01:15:16.435Z,4.00
2022-08-26T01:17:45.003Z,3.90
2022-08-26T01:20:29.967Z,4.40
2022-08-26T01:23:03.222Z,3.90
2022-08-26T01:25:35.122Z,4.00
2022-08-26T01:28:08.519Z,3.80
2022-08-26T01:30:41.003Z,4.50
2022-08-26T01:35:40.476Z,4.00
2022-08-26T01:38:09.951Z,3.80
2022-08-26T01:40:39.715Z,4.60
2022-08-26T01:43:11.058Z,4.40
2022-08-26T01:45:41.649Z,4.10
2022-08-26T01:48:15.711Z,4.40
2022-08-26T01:50:46.320Z,4.20
2022-08-26T01:53:17.537Z,7.20
2022-08-26T01:55:49.960Z,4.90
2022-08-26T01:58:24.894Z,8.20
2022-08-26T02:00:53.184Z,5.10
2022-08-26T02:03:22.612Z,4.50
2022-08-26T02:06:03.475Z,4.40
2022-08-26T02:08:39.500Z,4.10
2022-08-26T02:11:08.035Z,4.10
2022-08-26T02:13:42.887Z,4.40
2022-08-26T02:16:12.334Z,4.30
2022-08-26T02:18:43.084Z,4.30
2022-08-26T02:21:13.711Z,4.00
2022-08-26T02:23:42.968Z,4.50
2022-08-26T02:26:19.361Z,3.80
2022-08-26T02:28:59.617Z,4.50
2022-08-26T02:31:28.179Z,4.30
2022-08-26T02:34:08.227Z,5.70
2022-08-26T02:36:39.282Z,4.20
2022-08-26T02:39:08.590Z,4.00
2022-08-26T02:41:45.033Z,4.20
2022-08-26T02:44:13.943Z,3.80
2022-08-26T02:46:44.505Z,4.40
2022-08-26T02:49:17.213Z,3.80
2022-08-26T02:51:46.957Z,3.40
2022-08-26T02:54:15.955Z,4.00
2022-08-26T02:56:44.922Z,4.50
2022-08-26T02:59:13.859Z,4.30
2022-08-26T03:01:42.772Z,3.80
2022-08-26T03:04:12.623Z,4.00
2022-08-26T03:06:42.551Z,4.40
2022-08-26T03:09:18.501Z,4.30
2022-08-26T03:11:47.407Z,3.80
2022-08-26T03:14:15.790Z,3.80
2022-08-26T03:16:44.473Z,4.20
2022-08-26T03:19:17.625Z,4.40
2022-08-26T03:21:47.352Z,4.20
2022-08-26T03:24:17.490Z,4.10
2022-08-26T03:26:52.160Z,3.90
2022-08-26T03:29:40.745Z,3.60
2022-08-26T03:32:09.606Z,3.90
2022-08-26T03:34:38.885Z,3.40
2022-08-26T03:37:08.137Z,4.10
2022-08-26T03:39:37.248Z,4.60
2022-08-26T03:42:06.446Z,3.50
2022-08-26T03:44:34.915Z,4.10
2022-08-26T03:47:03.570Z,3.60
2022-08-26T03:49:35.169Z,3.90
2022-08-26T03:52:04.676Z,4.10
2022-08-26T03:54:34.566Z,3.70
2022-08-26T03:57:02.883Z,4.10
2022-08-26T03:59:31.614Z,4.00
2022-08-26T04:01:59.832Z,4.30
2022-08-26T04:04:28.093Z,4.50
2022-08-26T04:06:59.328Z,4.60
2022-08-26T04:09:28.475Z,4.00
2022-08-26T04:11:59.039Z,4.50
2022-08-26T04:14:28.003Z,4.20
2022-08-26T04:16:56.799Z,4.50
2022-08-26T04:19:27.427Z,4.10
2022-08-26T04:21:55.906Z,4.70
2022-08-26T04:24:27.984Z,4.00
2022-08-26T04:26:56.870Z,3.90
2022-08-26T04:29:27.094Z,3.80
2022-08-26T04:31:56.639Z,3.90
2022-08-26T04:34:29.850Z,4.00
2022-08-26T04:37:02.024Z,3.60
2022-08-26T04:39:31.097Z,4.20
2022-08-26T04:42:00.566Z,4.20
2022-08-26T04:44:31.019Z,4.30
2022-08-26T04:46:59.387Z,4.10
2022-08-26T04:49:35.388Z,3.70
2022-08-26T04:52:05.391Z,4.30
2022-08-26T04:54:33.611Z,3.60
2022-08-26T04:57:01.766Z,4.90
2022-08-26T04:59:30.042Z,3.70
2022-08-26T05:01:59.841Z,4.00
2022-08-26T05:04:28.052Z,3.50
2022-08-26T05:07:02.747Z,3.60
2022-08-26T05:09:31.325Z,3.40
2022-08-26T05:11:59.828Z,3.30
2022-08-26T05:14:28.195Z,3.30
2022-08-26T05:16:57.110Z,4.50
2022-08-26T05:19:25.477Z,3.50
2022-08-26T05:21:56.272Z,4.00
2022-08-26T05:24:24.479Z,3.80
2022-08-26T05:26:53.413Z,3.30
2022-08-26T05:29:21.632Z,3.70
2022-08-26T05:31:53.517Z,4.00
2022-08-26T05:34:25.727Z,3.40
2022-08-26T05:36:59.731Z,3.60
2022-08-26T05:39:28.534Z,3.80
2022-08-26T05:41:56.765Z,3.80
2022-08-26T05:44:25.174Z,3.60
2022-08-26T05:46:53.565Z,3.20
2022-08-26T05:49:26.220Z,3.60
2022-08-26T05:51:55.374Z,3.90
2022-08-26T05:54:23.867Z,3.40
2022-08-26T05:56:52.436Z,3.30
2022-08-26T05:59:21.398Z,3.40
2022-08-26T06:01:55.109Z,4.30
2022-08-26T06:04:27.953Z,3.90
2022-08-26T06:06:58.015Z,4.30
2022-08-26T06:09:27.613Z,4.40
2022-08-26T06:11:56.546Z,3.40
2022-08-26T06:14:26.348Z,3.00
2022-08-26T06:16:55.260Z,3.70
2022-08-26T06:19:23.787Z,3.60
2022-08-26T06:21:54.695Z,3.30
2022-08-26T06:24:41.734Z,3.40
2022-08-26T06:27:14.001Z,4.30
2022-08-26T06:29:43.615Z,3.30
2022-08-26T06:32:12.127Z,3.20
2022-08-26T06:34:40.369Z,3.60
2022-08-26T06:37:09.125Z,3.50
2022-08-26T06:39:41.072Z,3.90
2022-08-26T06:42:11.760Z,4.00
2022-08-26T06:44:41.879Z,3.70
2022-08-26T06:49:41.104Z,3.80
2022-08-26T06:52:09.917Z,2.70
2022-08-26T06:54:41.903Z,4.60
2022-08-26T06:57:13.085Z,3.40
2022-08-26T06:59:42.738Z,3.50
2022-08-26T07:02:13.600Z,3.60
2022-08-26T07:04:42.066Z,3.20
2022-08-26T07:07:14.662Z,3.90
2022-08-26T07:12:10.856Z,3.40
2022-08-26T07:14:39.611Z,3.30
2022-08-26T07:17:11.096Z,4.00
2022-08-26T07:19:42.197Z,3.70
2022-08-26T07:22:11.151Z,4.40
2022-08-26T07:24:42.476Z,3.40
2022-08-26T07:27:14.180Z,3.10
2022-08-26T07:29:44.103Z,3.50
2022-08-26T07:32:15.580Z,3.50
2022-08-26T07:34:44.764Z,3.00
2022-08-26T07:37:12.958Z,4.20
2022-08-26T07:39:43.160Z,3.30
2022-08-26T07:42:15.960Z,3.30
2022-08-26T07:44:47.345Z,3.90
2022-08-26T07:47:24.667Z,3.20
2022-08-26T07:49:56.209Z,3.60
2022-08-26T07:52:27.651Z,3.50
2022-08-26T07:54:58.440Z,3.80
2022-08-26T07:57:28.567Z,3.00
2022-08-26T07:59:57.571Z,3.00
2022-08-26T08:02:28.490Z,3.30
2022-08-26T08:04:58.080Z,2.70
2022-08-26T08:07:44.267Z,3.10
2022-08-26T08:10:17.878Z,3.40
2022-08-26T08:12:47.626Z,3.90
2022-08-26T08:15:17.918Z,3.50
2022-08-26T08:17:46.454Z,4.30
2022-08-26T08:20:20.391Z,3.70
2022-08-26T08:22:49.159Z,4.20
2022-08-26T08:25:17.671Z,4.00
2022-08-26T08:27:45.969Z,3.60
2022-08-26T08:30:20.868Z,3.40
2022-08-26T08:32:52.972Z,5.00
2022-08-26T08:35:22.819Z,3.30
2022-08-26T08:37:54.650Z,2.80
2022-08-26T08:40:26.473Z,2.80
2022-08-26T08:43:01.528Z,3.00
2022-08-26T08:45:47.975Z,3.30
2022-08-26T08:48:29.419Z,3.40
2022-08-26T08:51:23.792Z,3.10
2022-08-26T08:53:55.844Z,4.00
2022-08-26T08:56:27.011Z,3.20
2022-08-26T08:59:04.217Z,3.10
2022-08-26T09:02:21.293Z,3.10
2022-08-26T09:05:15.237Z,3.40
2022-08-26T09:07:49.286Z,3.50
2022-08-26T09:10:39.180Z,3.10
2022-08-26T09:13:13.860Z,3.30
2022-08-26T09:16:04.441Z,3.60
2022-08-26T09:18:55.581Z,3.40
2022-08-26T09:21:25.593Z,3.40
2022-08-26T09:23:56.747Z,3.70
2022-08-26T09:26:42.922Z,3.70
2022-08-26T09:29:24.057Z,2.60
2022-08-26T09:32:13.399Z,2.90
2022-08-26T09:34:55.412Z,2.90
2022-08-26T09:40:23.525Z,3.50
2022-08-26T09:43:22.465Z,2.60
2022-08-26T09:45:59.437Z,2.90
2022-08-26T09:48:41.024Z,3.00
2022-08-26T09:51:25.019Z,2.60
2022-08-26T09:53:59.121Z,2.50
2022-08-26T09:56:33.961Z,2.80
2022-08-26T09:59:04.018Z,2.40
2022-08-26T10:01:44.801Z,2.10
2022-08-26T10:04:22.183Z,2.20
2022-08-26T10:07:07.621Z,2.60
2022-08-26T10:09:43.278Z,3.00
2022-08-26T10:12:17.226Z,2.60
2022-08-26T10:14:50.416Z,2.30
2022-08-26T10:17:43.353Z,2.50
2022-08-26T10:20:24.912Z,2.40
2022-08-26T10:23:02.875Z,2.50
2022-08-26T10:25:51.640Z,2.60
2022-08-26T10:28:39.982Z,2.70
2022-08-26T10:31:19.997Z,2.40
2022-08-26T10:33:52.561Z,2.60
2022-08-26T10:37:05.044Z,2.90
2022-08-26T10:40:02.376Z,2.20
2022-08-26T10:42:40.696Z,2.80
2022-08-26T10:45:22.602Z,2.30
2022-08-26T10:48:05.436Z,3.20
2022-08-26T10:50:38.570Z,2.20
2022-08-26T10:53:32.512Z,2.40
2022-08-26T10:56:32.334Z,2.50
2022-08-26T10:59:20.734Z,2.70
2022-08-26T11:02:12.962Z,3.10
2022-08-26T11:05:05.834Z,2.50
2022-08-26T11:07:46.339Z,2.30
2022-08-26T11:10:16.936Z,2.30
2022-08-26T11:12:49.353Z,2.90
2022-08-26T11:15:24.845Z,2.40
2022-08-26T11:17:53.338Z,3.20
2022-08-26T11:20:33.862Z,2.30
2022-08-26T11:23:24.066Z,2.10
2022-08-26T11:26:10.341Z,2.30
2022-08-26T11:28:50.208Z,2.40
2022-08-26T11:31:25.462Z,3.00
2022-08-26T11:34:02.059Z,2.40
2022-08-26T11:36:33.713Z,1.80
2022-08-26T11:41:52.940Z,2.50
2022-08-26T11:44:28.379Z,3.00
2022-08-26T11:47:01.706Z,2.20
2022-08-26T11:49:33.393Z,2.80
2022-08-26T11:55:09.018Z,2.20
2022-08-26T11:57:48.174Z,2.60
2022-08-26T12:00:24.649Z,2.60
2022-08-26T12:02:58.058Z,2.70
2022-08-26T12:05:31.359Z,3.20
2022-08-26T12:08:11.832Z,2.30
2022-08-26T12:10:43.020Z,2.30
2022-08-26T12:13:22.775Z,2.60
2022-08-26T12:16:00.279Z,2.40
2022-08-26T12:18:34.338Z,2.10
2022-08-26T12:21:20.659Z,2.90
2022-08-26T12:23:57.632Z,2.20
2022-08-26T12:26:35.335Z,2.20
2022-08-26T12:29:26.593Z,2.30
2022-08-26T12:32:13.617Z,2.30
2022-08-26T12:34:43.697Z,2.70
2022-08-26T12:37:14.688Z,2.00
2022-08-26T12:39:45.010Z,2.40
2022-08-26T12:42:16.026Z,2.50
2022-08-26T12:45:06.755Z,2.10
2022-08-26T12:47:43.944Z,2.40
2022-08-26T12:50:25.579Z,2.20
2022-08-26T12:53:07.083Z,2.60
2022-08-26T12:55:50.659Z,2.10
2022-08-26T12:58:33.333Z,2.00
2022-08-26T13:01:04.850Z,2.50
2022-08-26T13:03:38.852Z,2.50
2022-08-26T13:06:22.930Z,2.60
2022-08-26T13:09:00.505Z,2.20
2022-08-26T13:11:34.652Z,2.00
2022-08-26T13:14:06.826Z,2.10
2022-08-26T13:16:37.286Z,2.10
2022-08-26T13:19:11.229Z,2.40
2022-08-26T13:21:48.661Z,1.80
2022-08-26T13:24:20.748Z,2.30
2022-08-26T13:26:50.537Z,2.00
2022-08-26T13:29:19.543Z,3.10
2022-08-26T13:31:49.524Z,2.00
2022-08-26T13:34:20.322Z,2.00
2022-08-26T13:36:50.454Z,2.30
2022-08-26T13:39:19.087Z,1.90
2022-08-26T13:41:47.336Z,2.00
2022-08-26T13:44:16.907Z,1.90
2022-08-26T13:49:18.827Z,2.20
2022-08-26T13:51:47.203Z,2.20
2022-08-26T13:54:15.419Z,1.80
2022-08-26T13:56:43.635Z,2.10
2022-08-26T13:59:11.767Z,2.30
2022-08-26T14:01:40.234Z,2.00
2022-08-26T14:04:09.390Z,2.50
2022-08-26T14:06:37.574Z,2.90
2022-08-26T14:09:05.905Z,1.90
2022-08-26T14:11:41.209Z,2.10
2022-08-26T14:14:19.072Z,2.50
2022-08-26T14:16:58.619Z,2.10
2022-08-26T14:19:30.515Z,2.00
2022-08-26T14:22:01.203Z,2.30
2022-08-26T14:24:30.670Z,2.10
2022-08-26T14:26:58.966Z,2.10
2022-08-26T14:29:27.764Z,2.10
2022-08-26T14:31:57.235Z,2.50
2022-08-26T14:34:25.616Z,2.10
2022-08-26T14:36:53.946Z,2.70
2022-08-26T14:39:22.453Z,2.50
2022-08-26T14:41:55.236Z,2.20
2022-08-26T14:44:33.184Z,1.90
2022-08-26T14:47:04.488Z,2.10
2022-08-26T14:49:32.752Z,3.30
2022-08-26T14:52:00.960Z,2.70
2022-08-26T14:54:29.667Z,2.00
2022-08-26T14:57:01.884Z,1.80
2022-08-26T14:59:35.606Z,2.40
2022-08-26T15:02:05.548Z,1.90
2022-08-26T15:04:34.230Z,2.90
2022-08-26T15:07:03.451Z,2.20
2022-08-26T15:09:34.824Z,2.20
2022-08-26T15:14:33.037Z,2.00
2022-08-26T15:17:01.564Z,2.10
2022-08-26T15:19:29.722Z,2.00
2022-08-26T15:21:58.041Z,2.00
2022-08-26T15:24:28.967Z,2.30
2022-08-26T15:26:57.720Z,2.80
2022-08-26T15:29:26.358Z,2.70
2022-08-26T15:31:55.319Z,2.50
2022-08-26T15:34:27.045Z,2.60
2022-08-26T15:36:55.264Z,2.20
2022-08-26T15:39:23.879Z,3.80
2022-08-26T15:41:52.133Z,2.30
2022-08-26T15:44:20.875Z,2.10
2022-08-26T15:46:50.197Z,1.80
2022-08-26T15:49:18.843Z,2.20
2022-08-26T15:51:51.734Z,2.30
2022-08-26T15:54:22.417Z,2.40
2022-08-26T15:56:52.442Z,2.20
2022-08-26T15:59:22.195Z,2.20
2022-08-26T16:01:51.821Z,2.20
2022-08-26T16:04:20.458Z,3.10
2022-08-26T16:06:51.671Z,2.60
2022-08-26T16:09:26.977Z,2.50
2022-08-26T16:11:58.830Z,2.20
2022-08-26T16:14:27.473Z,2.60
2022-08-26T16:16:57.502Z,2.70
2022-08-26T16:19:26.106Z,2.40
2022-08-26T16:21:54.463Z,2.30
2022-08-26T16:24:27.140Z,2.10
2022-08-26T16:26:58.508Z,2.40
2022-08-26T16:29:27.723Z,2.40
2022-08-26T16:31:55.842Z,3.20
2022-08-26T16:34:24.363Z,3.10
2022-08-26T16:36:52.758Z,2.40
2022-08-26T16:39:20.947Z,2.40
2022-08-26T16:41:49.113Z,2.60
2022-08-26T16:44:17.559Z,2.90
2022-08-26T16:46:45.997Z,2.70
2022-08-26T16:49:14.719Z,2.80
2022-08-26T16:51:43.109Z,3.10
2022-08-26T16:54:11.277Z,3.60
2022-08-26T16:56:39.509Z,3.80
2022-08-26T16:59:11.179Z,4.20
2022-08-26T17:01:39.602Z,5.20
2022-08-26T17:04:08.114Z,14.00
2022-08-26T17:06:37.010Z,14.70
2022-08-26T17:09:05.455Z,12.30
2022-08-26T17:11:34.342Z,12.50
2022-08-26T17:14:03.128Z,14.60
2022-08-26T17:16:32.218Z,12.80
2022-08-26T17:19:00.723Z,8.20
2022-08-26T17:21:29.193Z,6.50
2022-08-26T17:23:57.527Z,11.20
2022-08-26T17:26:26.910Z,11.70
2022-08-26T17:28:55.664Z,9.40
2022-08-26T17:31:24.621Z,12.40
2022-08-26T17:33:54.265Z,13.60
2022-08-26T17:36:28.062Z,12.90
2022-08-26T17:38:58.906Z,13.90
2022-08-26T17:41:28.223Z,14.10
2022-08-26T17:43:57.254Z,8.30
2022-08-26T17:46:25.912Z,6.40
2022-08-26T17:48:55.005Z,5.60
2022-08-26T17:51:24.329Z,6.00
2022-08-26T17:53:52.867Z,7.20
2022-08-26T17:56:26.738Z,7.30
2022-08-26T17:59:02.515Z,6.00
2022-08-26T18:01:32.781Z,11.80
2022-08-26T18:04:01.486Z,6.40
2022-08-26T18:06:30.915Z,5.40
2022-08-26T18:09:00.759Z,5.80
2022-08-26T18:11:29.566Z,5.10
2022-08-26T18:13:58.416Z,5.10
2022-08-26T18:16:27.556Z,5.40
2022-08-26T18:18:55.738Z,4.80
2022-08-26T18:21:26.263Z,4.90
2022-08-26T18:23:55.019Z,5.30
2022-08-26T18:26:29.643Z,4.80
2022-08-26T18:28:58.828Z,3.70
2022-08-26T18:31:27.884Z,5.60
2022-08-26T18:33:56.657Z,4.80
2022-08-26T18:36:29.330Z,4.30
2022-08-26T18:38:59.563Z,4.60
2022-08-26T18:41:30.490Z,4.00
2022-08-26T18:43:59.911Z,3.60
2022-08-26T18:46:28.626Z,3.90
2022-08-26T18:48:57.822Z,3.30
2022-08-26T18:51:31.655Z,3.40
2022-08-26T18:54:02.523Z,3.30
2022-08-26T18:56:30.937Z,3.40
2022-08-26T18:59:00.104Z,4.50
2022-08-26T19:01:30.460Z,3.50
2022-08-26T19:04:01.423Z,4.30
2022-08-26T19:06:33.113Z,3.50
2022-08-26T19:09:02.414Z,3.10
2022-08-26T19:11:42.336Z,4.40
2022-08-26T19:14:15.153Z,3.80
2022-08-26T19:16:46.498Z,3.30
2022-08-26T19:19:15.751Z,3.20
2022-08-26T19:21:44.328Z,3.40
2022-08-26T19:24:15.867Z,3.10
2022-08-26T19:26:47.025Z,3.30
2022-08-26T19:31:49.697Z,3.10
2022-08-26T19:34:20.753Z,3.30
2022-08-26T19:36:50.376Z,3.20
2022-08-26T19:39:18.953Z,3.50
2022-08-26T19:41:47.311Z,3.40
2022-08-26T19:44:39.068Z,3.40
2022-08-26T19:47:09.064Z,3.50
2022-08-26T19:49:37.873Z,3.50
2022-08-26T19:52:06.586Z,3.10
2022-08-26T19:54:36.315Z,3.50
2022-08-26T19:57:05.815Z,3.50
2022-08-26T19:59:33.997Z,3.50
2022-08-26T20:02:07.122Z,3.30
2022-08-26T20:04:39.250Z,3.50
2022-08-26T20:07:12.039Z,3.80
2022-08-26T20:09:41.967Z,4.10
2022-08-26T20:12:10.093Z,3.60
2022-08-26T20:14:38.337Z,3.70
2022-08-26T20:17:06.864Z,3.60
2022-08-26T20:19:54.493Z,3.80
2022-08-26T20:22:23.008Z,3.50
2022-08-26T20:24:52.355Z,3.90
2022-08-26T20:27:27.642Z,3.20
2022-08-26T20:30:09.135Z,3.50
2022-08-26T20:32:39.652Z,4.10
2022-08-26T20:35:11.513Z,3.70
2022-08-26T20:37:40.802Z,3.60
2022-08-26T20:40:11.751Z,3.60
2022-08-26T20:42:40.125Z,3.40
2022-08-26T20:45:09.091Z,3.80
2022-08-26T20:47:38.893Z,3.50
2022-08-26T20:50:08.757Z,3.30
2022-08-26T20:52:36.968Z,4.10
2022-08-26T20:55:05.729Z,3.30
2022-08-26T20:57:34.063Z,3.50
2022-08-26T21:00:02.383Z,3.00
2022-08-26T21:02:31.714Z,4.00
2022-08-26T21:05:00.690Z,14.80
2022-08-26T21:07:31.130Z,3.60
2022-08-26T21:10:00.601Z,3.80
2022-08-26T21:12:28.991Z,4.80
2022-08-26T21:14:57.222Z,3.50
2022-08-26T21:17:25.736Z,3.50
2022-08-26T21:19:54.347Z,3.60
2022-08-26T21:22:22.741Z,3.60
2022-08-26T21:24:50.874Z,3.50
2022-08-26T21:27:26.087Z,3.60
2022-08-26T21:29:55.567Z,3.80
2022-08-26T21:32:23.970Z,3.90
2022-08-26T21:34:56.820Z,3.40
2022-08-26T21:37:26.390Z,3.30
2022-08-26T21:39:59.414Z,3.10
2022-08-26T21:42:31.861Z,3.30
2022-08-26T21:45:01.852Z,3.60
2022-08-26T21:47:32.291Z,3.60
2022-08-26T21:50:00.975Z,3.10
2022-08-26T21:52:30.194Z,3.60
2022-08-26T21:55:00.635Z,3.40
2022-08-26T21:57:30.171Z,3.70
2022-08-26T21:59:58.731Z,3.60
2022-08-26T22:02:27.111Z,3.20
2022-08-26T22:04:56.519Z,3.20
2022-08-26T22:07:24.574Z,3.60
2022-08-26T22:09:52.779Z,3.50
2022-08-26T22:12:20.908Z,3.10
2022-08-26T22:14:49.386Z,4.20
2022-08-26T22:17:17.645Z,3.60
2022-08-26T22:19:46.798Z,3.40
2022-08-26T22:22:16.112Z,3.50
2022-08-26T22:24:44.642Z,4.30
2022-08-26T22:27:14.004Z,3.60
2022-08-26T22:29:42.202Z,4.10
2022-08-26T22:32:10.946Z,3.20
2022-08-26T22:34:39.909Z,4.00
2022-08-26T22:37:08.218Z,3.60
2022-08-26T22:39:36.399Z,3.60
2022-08-26T22:42:04.902Z,3.80
2022-08-26T22:44:33.339Z,3.90
2022-08-26T22:47:01.498Z,4.90
2022-08-26T22:49:29.751Z,3.70
2022-08-26T22:51:58.335Z,3.40
2022-08-26T22:54:28.241Z,4.20
2022-08-26T22:56:56.295Z,3.40
2022-08-26T22:59:24.600Z,3.70
2022-08-26T23:01:52.790Z,3.40
2022-08-26T23:04:21.280Z,3.30
2022-08-26T23:06:49.928Z,3.70
2022-08-26T23:09:19.412Z,3.80
2022-08-26T23:11:49.466Z,3.70
2022-08-26T23:14:19.215Z,3.20
2022-08-26T23:16:47.970Z,4.40
2022-08-26T23:19:20.390Z,3.40
2022-08-26T23:21:49.982Z,3.30
2022-08-26T23:24:18.751Z,3.50
2022-08-26T23:26:47.019Z,3.60
2022-08-26T23:29:16.194Z,3.20
2022-08-26T23:31:44.982Z,3.40
2022-08-26T23:34:33.012Z,3.40
2022-08-26T23:37:02.139Z,3.30
2022-08-26T23:39:35.367Z,3.70
2022-08-26T23:42:04.463Z,4.20
2022-08-26T23:44:33.197Z,3.30
2022-08-26T23:47:01.944Z,3.30
2022-08-26T23:49:31.070Z,3.40
2022-08-26T23:52:18.346Z,3.10
2022-08-26T23:54:48.878Z,3.40
2022-08-26T23:57:18.663Z,3.10
2022-08-26T23:59:48.723Z,3.20
